Skip Navigation Links Skip Navigation Links

Current Weather

Toledo Suburban, Lambertville, Mich.

For information only: do not use for flight planning or navigation.
Latest weather
Observation time Friday, May 29, 2020 5:56 PM EDT
Local time Friday, May 29, 2020 6:23 PM EDT
Flight conditions Visual Meteorological Conditions
Winds
Wind direction Northwest (310°)
Wind speed 7 mph
Visibility 10 mi.
Sky condition
Ceiling unlimited
Cloud layer scattered clouds 4,400 ft.
Cloud layer scattered clouds 5,000 ft.
Temperature 71°F
Dewpoint 53°F
Altimeter 29.94 in.Hg
Derived measurements
Relative humidity 53%
Density altitude 1597 ft.
Remarks
Fully automated report.
Automated weather observing station with precipitation discriminator.
METAR KDUH 292156Z AUTO 31006KT 10SM SCT044 SCT050 22/12 A2994 RMK AO2 T02150115

Settings

Location code

InnerDrive.Weather 4.0.6770.0 Release CLR 4.0.30319.42000
Copyright ©2018 Inner Drive Technology. All rights reserved. Portions Copyright ©1986-2018 David Braverman.

Find weather

Site navigation


Skip Navigation Links

Place info

Page info

PayPal - The safer, easier way to pay online!

Return home.

Copyright ©2020 Inner Drive Technology. Purveyors of fine, hand-crafted computer software. Page printed 2020-05-29T22:23:34 UTC.